Ana Sayfa
METAR-TAF:

METAR-TAF

Havaalanları :

Tak, Tayland

Enlem: 16-53N, Boylam: 099-09E, yükseklik: 121 m

METAR: eksik

Saat: 07:22 (00:22 UTC)

Tahmin

Rapor saat 23:00 UTC de 1 saat ve 22 dakika önce yapıldı.
Ayın 28'si saat 00 UTC'den ayın 28'si saat 24 UTC'ye kadar geçerli Tahmin
Rüzgar batı/güneybatıdan 5 kt
Görüş mesafesi: 5000 m
2600 ft yükseklikte az bulutlu
Toz Pusu

TAF: VTPT 272300Z 2800/2824 24005KT 5000 HZ FEW026

4.000'den fazla havaalanı için hava durumu gözlemleri ve tahminleri (METAR ve TAF raporları).

Kullanılabilir istasyonlar harita üzerinde sarı ve kırmızı noktalarla gösterilir.

İstasyonun adını görmek için fareyi noktanın üzerinde gezdirin.

Sonrasında hava gözlem ve tahminlerini görmek için tıklayın.

Haritayı değiştirmek için: yaklaştırmak için siyah artı işaretli yeşil düğmeye ve uzaklaştırmak için de eksi işaretli düğmeye hızla tıklayın; bitişik haritalar için yeşil okları kullanın.


METAR-TAF: